sensor_id;sensor_type;location;lat;lon;timestamp;P1;durP1;ratioP1;P2;durP2;ratioP2
15356;SDS011;7778;48.792;9.260;2023-06-22T00:00:17;8.70;;;5.85;;
15356;SDS011;7778;48.792;9.260;2023-06-22T00:03:05;9.95;;;5.60;;
15356;SDS011;7778;48.792;9.260;2023-06-22T00:05:51;10.88;;;5.55;;
15356;SDS011;7778;48.792;9.260;2023-06-22T00:08:37;9.00;;;6.25;;
15356;SDS011;7778;48.792;9.260;2023-06-22T00:11:24;8.27;;;5.60;;
15356;SDS011;7778;48.792;9.260;2023-06-22T00:14:11;10.55;;;5.47;;
15356;SDS011;7778;48.792;9.260;2023-06-22T00:16:58;10.70;;;5.28;;
15356;SDS011;7778;48.792;9.260;2023-06-22T00:19:46;9.80;;;5.32;;
15356;SDS011;7778;48.792;9.260;2023-06-22T00:22:37;8.85;;;5.78;;
15356;SDS011;7778;48.792;9.260;2023-06-22T00:25:23;7.25;;;5.25;;
15356;SDS011;7778;48.792;9.260;2023-06-22T00:28:12;8.80;;;6.05;;
15356;SDS011;7778;48.792;9.260;2023-06-22T00:30:59;10.05;;;6.18;;
15356;SDS011;7778;48.792;9.260;2023-06-22T00:33:45;9.95;;;6.15;;
15356;SDS011;7778;48.792;9.260;2023-06-22T00:36:37;11.60;;;6.40;;
15356;SDS011;7778;48.792;9.260;2023-06-22T00:39:25;10.10;;;6.15;;
15356;SDS011;7778;48.792;9.260;2023-06-22T00:42:11;9.50;;;6.15;;
15356;SDS011;7778;48.792;9.260;2023-06-22T00:44:59;9.98;;;5.93;;
15356;SDS011;7778;48.792;9.260;2023-06-22T00:47:45;10.23;;;5.57;;
15356;SDS011;7778;48.792;9.260;2023-06-22T00:50:32;11.43;;;5.82;;
15356;SDS011;7778;48.792;9.260;2023-06-22T00:53:20;11.73;;;5.85;;
15356;SDS011;7778;48.792;9.260;2023-06-22T00:56:06;11.98;;;5.25;;
15356;SDS011;7778;48.792;9.260;2023-06-22T00:58:57;8.15;;;4.95;;
15356;SDS011;7778;48.792;9.260;2023-06-22T01:01:47;9.13;;;6.10;;
15356;SDS011;7778;48.792;9.260;2023-06-22T01:04:34;8.85;;;5.60;;
15356;SDS011;7778;48.792;9.260;2023-06-22T01:07:22;8.63;;;5.57;;
15356;SDS011;7778;48.792;9.260;2023-06-22T01:10:25;8.15;;;5.25;;
15356;SDS011;7778;48.792;9.260;2023-06-22T01:13:23;8.55;;;6.10;;
15356;SDS011;7778;48.792;9.260;2023-06-22T01:16:16;10.70;;;5.60;;
15356;SDS011;7778;48.792;9.260;2023-06-22T01:19:14;9.88;;;6.07;;
15356;SDS011;7778;48.792;9.260;2023-06-22T01:22:15;9.63;;;5.50;;
15356;SDS011;7778;48.792;9.260;2023-06-22T01:25:05;9.82;;;5.70;;
15356;SDS011;7778;48.792;9.260;2023-06-22T01:27:56;11.50;;;5.80;;
15356;SDS011;7778;48.792;9.260;2023-06-22T01:30:51;8.55;;;5.93;;
15356;SDS011;7778;48.792;9.260;2023-06-22T01:33:48;7.93;;;5.18;;
15356;SDS011;7778;48.792;9.260;2023-06-22T01:36:39;9.52;;;5.63;;
15356;SDS011;7778;48.792;9.260;2023-06-22T01:39:26;14.13;;;6.85;;
15356;SDS011;7778;48.792;9.260;2023-06-22T01:42:15;10.25;;;6.10;;
15356;SDS011;7778;48.792;9.260;2023-06-22T01:45:04;11.48;;;6.40;;
15356;SDS011;7778;48.792;9.260;2023-06-22T01:47:54;11.80;;;5.97;;
15356;SDS011;7778;48.792;9.260;2023-06-22T01:50:40;12.05;;;7.50;;
15356;SDS011;7778;48.792;9.260;2023-06-22T01:53:28;10.30;;;6.85;;
15356;SDS011;7778;48.792;9.260;2023-06-22T01:56:16;10.68;;;6.82;;
15356;SDS011;7778;48.792;9.260;2023-06-22T01:59:04;9.77;;;6.97;;
15356;SDS011;7778;48.792;9.260;2023-06-22T02:01:57;13.05;;;7.70;;
15356;SDS011;7778;48.792;9.260;2023-06-22T02:04:51;9.93;;;7.15;;
15356;SDS011;7778;48.792;9.260;2023-06-22T02:07:42;12.40;;;6.50;;
15356;SDS011;7778;48.792;9.260;2023-06-22T02:10:32;11.27;;;6.80;;
15356;SDS011;7778;48.792;9.260;2023-06-22T02:13:20;11.15;;;6.60;;
15356;SDS011;7778;48.792;9.260;2023-06-22T02:16:06;12.77;;;6.93;;
15356;SDS011;7778;48.792;9.260;2023-06-22T02:18:52;12.73;;;7.18;;
15356;SDS011;7778;48.792;9.260;2023-06-22T02:21:39;9.65;;;7.35;;
15356;SDS011;7778;48.792;9.260;2023-06-22T02:24:25;10.65;;;7.13;;
15356;SDS011;7778;48.792;9.260;2023-06-22T02:27:10;11.10;;;6.82;;
15356;SDS011;7778;48.792;9.260;2023-06-22T02:29:56;12.40;;;7.35;;
15356;SDS011;7778;48.792;9.260;2023-06-22T02:32:42;11.40;;;7.07;;
15356;SDS011;7778;48.792;9.260;2023-06-22T02:35:28;10.80;;;7.30;;
15356;SDS011;7778;48.792;9.260;2023-06-22T02:38:16;11.23;;;7.47;;
15356;SDS011;7778;48.792;9.260;2023-06-22T02:41:03;12.18;;;7.85;;
15356;SDS011;7778;48.792;9.260;2023-06-22T02:43:50;10.15;;;6.85;;
15356;SDS011;7778;48.792;9.260;2023-06-22T02:46:35;11.43;;;6.60;;
15356;SDS011;7778;48.792;9.260;2023-06-22T02:49:21;12.98;;;6.85;;
15356;SDS011;7778;48.792;9.260;2023-06-22T02:52:08;11.10;;;6.57;;
15356;SDS011;7778;48.792;9.260;2023-06-22T02:54:55;9.52;;;6.65;;
15356;SDS011;7778;48.792;9.260;2023-06-22T02:57:41;12.73;;;7.47;;
15356;SDS011;7778;48.792;9.260;2023-06-22T03:00:29;9.82;;;6.65;;
15356;SDS011;7778;48.792;9.260;2023-06-22T03:03:15;10.77;;;6.93;;
15356;SDS011;7778;48.792;9.260;2023-06-22T03:06:00;11.23;;;7.53;;
15356;SDS011;7778;48.792;9.260;2023-06-22T03:08:46;13.07;;;7.53;;
15356;SDS011;7778;48.792;9.260;2023-06-22T03:11:33;12.05;;;7.22;;
15356;SDS011;7778;48.792;9.260;2023-06-22T03:14:19;10.10;;;6.80;;
15356;SDS011;7778;48.792;9.260;2023-06-22T03:17:05;9.35;;;6.82;;
15356;SDS011;7778;48.792;9.260;2023-06-22T03:19:50;10.90;;;7.20;;
15356;SDS011;7778;48.792;9.260;2023-06-22T03:22:37;11.48;;;7.35;;
15356;SDS011;7778;48.792;9.260;2023-06-22T03:25:23;11.30;;;7.30;;
15356;SDS011;7778;48.792;9.260;2023-06-22T03:28:10;11.07;;;6.78;;
15356;SDS011;7778;48.792;9.260;2023-06-22T03:30:56;21.88;;;11.35;;
15356;SDS011;7778;48.792;9.260;2023-06-22T03:33:43;14.35;;;9.40;;
15356;SDS011;7778;48.792;9.260;2023-06-22T03:36:28;13.27;;;8.23;;
15356;SDS011;7778;48.792;9.260;2023-06-22T03:39:14;14.25;;;7.72;;
15356;SDS011;7778;48.792;9.260;2023-06-22T03:41:59;10.77;;;7.18;;
15356;SDS011;7778;48.792;9.260;2023-06-22T03:44:46;11.07;;;7.65;;
15356;SDS011;7778;48.792;9.260;2023-06-22T03:47:32;13.07;;;7.63;;
15356;SDS011;7778;48.792;9.260;2023-06-22T03:50:18;10.55;;;7.45;;
15356;SDS011;7778;48.792;9.260;2023-06-22T03:53:04;10.48;;;6.80;;
15356;SDS011;7778;48.792;9.260;2023-06-22T03:55:50;12.73;;;7.13;;
15356;SDS011;7778;48.792;9.260;2023-06-22T03:58:36;9.75;;;6.97;;
15356;SDS011;7778;48.792;9.260;2023-06-22T04:01:28;12.07;;;6.97;;
15356;SDS011;7778;48.792;9.260;2023-06-22T04:04:13;11.55;;;7.57;;
15356;SDS011;7778;48.792;9.260;2023-06-22T04:06:59;13.05;;;7.60;;
15356;SDS011;7778;48.792;9.260;2023-06-22T04:09:45;13.77;;;7.38;;
15356;SDS011;7778;48.792;9.260;2023-06-22T04:12:30;9.70;;;6.28;;
15356;SDS011;7778;48.792;9.260;2023-06-22T04:15:16;13.05;;;8.07;;
15356;SDS011;7778;48.792;9.260;2023-06-22T04:18:03;10.45;;;6.53;;
15356;SDS011;7778;48.792;9.260;2023-06-22T04:20:49;10.38;;;6.70;;
15356;SDS011;7778;48.792;9.260;2023-06-22T04:23:34;11.15;;;7.22;;
15356;SDS011;7778;48.792;9.260;2023-06-22T04:26:20;12.63;;;7.20;;
15356;SDS011;7778;48.792;9.260;2023-06-22T04:29:05;10.50;;;7.15;;
15356;SDS011;7778;48.792;9.260;2023-06-22T04:31:52;10.32;;;7.13;;
15356;SDS011;7778;48.792;9.260;2023-06-22T04:34:41;11.95;;;6.93;;
15356;SDS011;7778;48.792;9.260;2023-06-22T04:37:26;12.20;;;7.18;;
15356;SDS011;7778;48.792;9.260;2023-06-22T04:40:12;11.20;;;6.55;;
15356;SDS011;7778;48.792;9.260;2023-06-22T04:42:58;11.32;;;7.07;;
15356;SDS011;7778;48.792;9.260;2023-06-22T04:45:46;10.38;;;6.22;;
15356;SDS011;7778;48.792;9.260;2023-06-22T04:48:36;11.52;;;6.25;;
15356;SDS011;7778;48.792;9.260;2023-06-22T04:51:23;11.30;;;6.18;;
15356;SDS011;7778;48.792;9.260;2023-06-22T04:54:13;11.23;;;6.22;;
15356;SDS011;7778;48.792;9.260;2023-06-22T04:56:59;9.25;;;6.20;;
15356;SDS011;7778;48.792;9.260;2023-06-22T04:59:45;9.40;;;5.85;;
15356;SDS011;7778;48.792;9.260;2023-06-22T05:02:31;8.38;;;5.50;;
15356;SDS011;7778;48.792;9.260;2023-06-22T05:05:16;9.60;;;5.90;;
15356;SDS011;7778;48.792;9.260;2023-06-22T05:08:04;9.18;;;5.80;;
15356;SDS011;7778;48.792;9.260;2023-06-22T05:10:50;7.45;;;5.03;;
15356;SDS011;7778;48.792;9.260;2023-06-22T05:13:35;10.15;;;5.75;;
15356;SDS011;7778;48.792;9.260;2023-06-22T05:16:21;9.52;;;5.53;;
15356;SDS011;7778;48.792;9.260;2023-06-22T05:19:08;9.20;;;5.47;;
15356;SDS011;7778;48.792;9.260;2023-06-22T05:21:54;7.85;;;5.05;;
15356;SDS011;7778;48.792;9.260;2023-06-22T05:24:41;7.78;;;5.10;;
15356;SDS011;7778;48.792;9.260;2023-06-22T05:27:26;8.40;;;5.07;;
15356;SDS011;7778;48.792;9.260;2023-06-22T05:30:12;10.07;;;5.10;;
15356;SDS011;7778;48.792;9.260;2023-06-22T05:32:59;6.82;;;4.75;;
15356;SDS011;7778;48.792;9.260;2023-06-22T05:35:45;12.90;;;5.40;;
15356;SDS011;7778;48.792;9.260;2023-06-22T05:38:32;14.23;;;5.63;;
15356;SDS011;7778;48.792;9.260;2023-06-22T05:41:19;8.25;;;4.75;;
15356;SDS011;7778;48.792;9.260;2023-06-22T05:44:05;7.07;;;4.70;;
15356;SDS011;7778;48.792;9.260;2023-06-22T05:46:51;10.20;;;5.32;;
15356;SDS011;7778;48.792;9.260;2023-06-22T05:49:36;8.98;;;5.82;;
15356;SDS011;7778;48.792;9.260;2023-06-22T05:52:22;11.27;;;5.70;;
15356;SDS011;7778;48.792;9.260;2023-06-22T05:55:08;6.60;;;4.72;;
15356;SDS011;7778;48.792;9.260;2023-06-22T05:57:55;11.25;;;5.95;;
15356;SDS011;7778;48.792;9.260;2023-06-22T06:00:41;8.93;;;5.30;;
15356;SDS011;7778;48.792;9.260;2023-06-22T06:03:27;6.88;;;4.82;;
15356;SDS011;7778;48.792;9.260;2023-06-22T06:06:13;7.65;;;4.82;;
15356;SDS011;7778;48.792;9.260;2023-06-22T06:08:59;7.78;;;4.70;;
15356;SDS011;7778;48.792;9.260;2023-06-22T06:11:44;8.07;;;4.93;;
15356;SDS011;7778;48.792;9.260;2023-06-22T06:14:31;6.60;;;4.38;;
15356;SDS011;7778;48.792;9.260;2023-06-22T06:17:17;9.18;;;5.10;;
15356;SDS011;7778;48.792;9.260;2023-06-22T06:20:03;6.82;;;4.60;;
15356;SDS011;7778;48.792;9.260;2023-06-22T06:22:51;8.75;;;5.25;;
15356;SDS011;7778;48.792;9.260;2023-06-22T06:25:37;7.47;;;5.13;;
15356;SDS011;7778;48.792;9.260;2023-06-22T06:28:24;7.60;;;4.75;;
15356;SDS011;7778;48.792;9.260;2023-06-22T06:31:11;11.73;;;5.13;;
15356;SDS011;7778;48.792;9.260;2023-06-22T06:34:00;7.43;;;4.78;;
15356;SDS011;7778;48.792;9.260;2023-06-22T06:36:46;7.35;;;4.13;;
15356;SDS011;7778;48.792;9.260;2023-06-22T06:39:31;7.38;;;4.40;;
15356;SDS011;7778;48.792;9.260;2023-06-22T06:42:17;7.00;;;4.57;;
15356;SDS011;7778;48.792;9.260;2023-06-22T06:45:04;6.72;;;4.22;;
15356;SDS011;7778;48.792;9.260;2023-06-22T06:47:52;7.35;;;4.32;;
15356;SDS011;7778;48.792;9.260;2023-06-22T06:50:38;6.82;;;4.07;;
15356;SDS011;7778;48.792;9.260;2023-06-22T06:53:23;6.47;;;3.78;;
15356;SDS011;7778;48.792;9.260;2023-06-22T06:56:09;6.05;;;4.50;;
15356;SDS011;7778;48.792;9.260;2023-06-22T06:58:55;6.47;;;4.13;;
15356;SDS011;7778;48.792;9.260;2023-06-22T07:01:42;7.95;;;4.97;;
15356;SDS011;7778;48.792;9.260;2023-06-22T07:04:29;7.68;;;4.43;;
15356;SDS011;7778;48.792;9.260;2023-06-22T07:07:15;7.45;;;4.00;;
15356;SDS011;7778;48.792;9.260;2023-06-22T07:10:01;7.85;;;4.00;;
15356;SDS011;7778;48.792;9.260;2023-06-22T07:12:48;8.13;;;4.50;;
15356;SDS011;7778;48.792;9.260;2023-06-22T07:15:33;8.07;;;3.85;;
15356;SDS011;7778;48.792;9.260;2023-06-22T07:18:19;8.77;;;4.38;;
15356;SDS011;7778;48.792;9.260;2023-06-22T07:21:06;6.90;;;4.55;;
15356;SDS011;7778;48.792;9.260;2023-06-22T07:23:52;5.50;;;3.53;;
15356;SDS011;7778;48.792;9.260;2023-06-22T07:26:38;5.70;;;3.50;;
15356;SDS011;7778;48.792;9.260;2023-06-22T07:29:25;5.38;;;3.58;;
15356;SDS011;7778;48.792;9.260;2023-06-22T07:32:11;6.07;;;4.13;;
15356;SDS011;7778;48.792;9.260;2023-06-22T07:34:56;4.93;;;3.40;;
15356;SDS011;7778;48.792;9.260;2023-06-22T07:37:43;6.78;;;3.45;;
15356;SDS011;7778;48.792;9.260;2023-06-22T07:40:29;7.72;;;3.67;;
15356;SDS011;7778;48.792;9.260;2023-06-22T07:43:14;7.85;;;3.25;;
15356;SDS011;7778;48.792;9.260;2023-06-22T07:46:00;6.15;;;3.50;;
15356;SDS011;7778;48.792;9.260;2023-06-22T07:48:45;5.93;;;3.67;;
15356;SDS011;7778;48.792;9.260;2023-06-22T07:51:31;7.70;;;3.97;;
15356;SDS011;7778;48.792;9.260;2023-06-22T07:54:18;7.95;;;3.97;;
15356;SDS011;7778;48.792;9.260;2023-06-22T07:57:04;4.95;;;3.60;;
15356;SDS011;7778;48.792;9.260;2023-06-22T07:59:50;6.90;;;3.70;;
15356;SDS011;7778;48.792;9.260;2023-06-22T08:02:36;9.73;;;3.85;;
15356;SDS011;7778;48.792;9.260;2023-06-22T08:05:21;6.70;;;3.63;;
15356;SDS011;7778;48.792;9.260;2023-06-22T08:08:07;6.07;;;3.60;;
15356;SDS011;7778;48.792;9.260;2023-06-22T08:10:54;9.98;;;4.03;;
15356;SDS011;7778;48.792;9.260;2023-06-22T08:13:40;9.23;;;3.92;;
15356;SDS011;7778;48.792;9.260;2023-06-22T08:16:26;7.20;;;4.00;;
15356;SDS011;7778;48.792;9.260;2023-06-22T08:19:11;7.82;;;3.85;;
15356;SDS011;7778;48.792;9.260;2023-06-22T08:21:57;6.88;;;3.65;;
15356;SDS011;7778;48.792;9.260;2023-06-22T08:24:42;5.28;;;3.65;;
15356;SDS011;7778;48.792;9.260;2023-06-22T08:27:29;5.32;;;3.72;;
15356;SDS011;7778;48.792;9.260;2023-06-22T08:30:16;5.68;;;3.55;;
15356;SDS011;7778;48.792;9.260;2023-06-22T08:33:02;6.43;;;3.35;;
15356;SDS011;7778;48.792;9.260;2023-06-22T08:35:47;5.57;;;4.18;;
15356;SDS011;7778;48.792;9.260;2023-06-22T08:38:34;6.32;;;3.42;;
15356;SDS011;7778;48.792;9.260;2023-06-22T08:41:19;8.38;;;4.03;;
15356;SDS011;7778;48.792;9.260;2023-06-22T08:44:06;6.65;;;3.75;;
15356;SDS011;7778;48.792;9.260;2023-06-22T08:46:51;7.88;;;3.60;;
15356;SDS011;7778;48.792;9.260;2023-06-22T08:49:37;8.10;;;4.07;;
15356;SDS011;7778;48.792;9.260;2023-06-22T08:52:23;6.65;;;3.75;;
15356;SDS011;7778;48.792;9.260;2023-06-22T08:55:09;7.53;;;3.70;;
15356;SDS011;7778;48.792;9.260;2023-06-22T08:57:55;7.88;;;4.00;;
15356;SDS011;7778;48.792;9.260;2023-06-22T09:00:42;6.60;;;3.95;;
15356;SDS011;7778;48.792;9.260;2023-06-22T09:03:27;5.80;;;3.65;;
15356;SDS011;7778;48.792;9.260;2023-06-22T09:06:13;4.80;;;3.63;;
15356;SDS011;7778;48.792;9.260;2023-06-22T09:08:59;5.63;;;3.60;;
15356;SDS011;7778;48.792;9.260;2023-06-22T09:11:46;4.85;;;3.90;;
15356;SDS011;7778;48.792;9.260;2023-06-22T09:14:32;7.38;;;3.75;;
15356;SDS011;7778;48.792;9.260;2023-06-22T09:17:19;7.65;;;4.03;;
15356;SDS011;7778;48.792;9.260;2023-06-22T09:20:05;6.95;;;3.75;;
15356;SDS011;7778;48.792;9.260;2023-06-22T09:22:54;6.45;;;3.50;;
15356;SDS011;7778;48.792;9.260;2023-06-22T09:25:40;6.82;;;3.75;;
15356;SDS011;7778;48.792;9.260;2023-06-22T09:28:26;11.30;;;4.38;;
15356;SDS011;7778;48.792;9.260;2023-06-22T09:31:11;5.32;;;3.80;;
15356;SDS011;7778;48.792;9.260;2023-06-22T09:33:59;7.05;;;3.95;;
15356;SDS011;7778;48.792;9.260;2023-06-22T09:36:44;7.45;;;3.90;;
15356;SDS011;7778;48.792;9.260;2023-06-22T09:39:30;6.20;;;3.70;;
15356;SDS011;7778;48.792;9.260;2023-06-22T09:42:16;8.32;;;4.60;;
15356;SDS011;7778;48.792;9.260;2023-06-22T09:45:01;6.70;;;4.00;;
15356;SDS011;7778;48.792;9.260;2023-06-22T09:47:47;8.68;;;4.07;;
15356;SDS011;7778;48.792;9.260;2023-06-22T09:50:34;7.53;;;3.55;;
15356;SDS011;7778;48.792;9.260;2023-06-22T09:53:21;8.15;;;5.13;;
15356;SDS011;7778;48.792;9.260;2023-06-22T09:56:06;6.22;;;3.72;;
15356;SDS011;7778;48.792;9.260;2023-06-22T09:58:58;8.45;;;4.15;;
15356;SDS011;7778;48.792;9.260;2023-06-22T10:01:44;6.35;;;3.85;;
15356;SDS011;7778;48.792;9.260;2023-06-22T10:04:29;5.72;;;4.18;;
15356;SDS011;7778;48.792;9.260;2023-06-22T10:07:16;8.18;;;4.57;;
15356;SDS011;7778;48.792;9.260;2023-06-22T10:10:02;6.90;;;4.50;;
15356;SDS011;7778;48.792;9.260;2023-06-22T10:12:55;12.85;;;4.57;;
15356;SDS011;7778;48.792;9.260;2023-06-22T10:15:42;9.00;;;4.60;;
15356;SDS011;7778;48.792;9.260;2023-06-22T10:18:33;7.72;;;4.35;;
15356;SDS011;7778;48.792;9.260;2023-06-22T10:21:19;5.85;;;3.70;;
15356;SDS011;7778;48.792;9.260;2023-06-22T10:24:06;9.40;;;3.88;;
15356;SDS011;7778;48.792;9.260;2023-06-22T10:26:52;7.40;;;3.50;;
15356;SDS011;7778;48.792;9.260;2023-06-22T10:29:37;7.05;;;4.32;;
15356;SDS011;7778;48.792;9.260;2023-06-22T10:32:23;9.02;;;3.70;;
15356;SDS011;7778;48.792;9.260;2023-06-22T10:35:08;8.65;;;4.07;;
15356;SDS011;7778;48.792;9.260;2023-06-22T10:37:57;7.55;;;4.45;;
15356;SDS011;7778;48.792;9.260;2023-06-22T10:40:45;8.82;;;4.40;;
15356;SDS011;7778;48.792;9.260;2023-06-22T10:43:31;6.63;;;3.83;;
15356;SDS011;7778;48.792;9.260;2023-06-22T10:46:16;10.30;;;4.32;;
15356;SDS011;7778;48.792;9.260;2023-06-22T10:49:02;9.70;;;5.03;;
15356;SDS011;7778;48.792;9.260;2023-06-22T10:51:48;9.48;;;4.32;;
15356;SDS011;7778;48.792;9.260;2023-06-22T10:54:33;10.70;;;4.05;;
15356;SDS011;7778;48.792;9.260;2023-06-22T10:57:21;8.40;;;4.32;;
15356;SDS011;7778;48.792;9.260;2023-06-22T11:00:07;10.88;;;4.70;;
15356;SDS011;7778;48.792;9.260;2023-06-22T11:02:55;7.43;;;4.50;;
15356;SDS011;7778;48.792;9.260;2023-06-22T11:05:42;8.82;;;4.20;;
15356;SDS011;7778;48.792;9.260;2023-06-22T11:08:27;7.80;;;4.18;;
15356;SDS011;7778;48.792;9.260;2023-06-22T11:11:13;9.90;;;4.07;;
15356;SDS011;7778;48.792;9.260;2023-06-22T11:14:00;9.05;;;3.85;;
15356;SDS011;7778;48.792;9.260;2023-06-22T11:16:46;9.50;;;4.03;;
15356;SDS011;7778;48.792;9.260;2023-06-22T11:19:31;10.52;;;4.47;;
15356;SDS011;7778;48.792;9.260;2023-06-22T11:22:17;7.45;;;4.07;;
15356;SDS011;7778;48.792;9.260;2023-06-22T11:25:02;10.30;;;4.72;;
15356;SDS011;7778;48.792;9.260;2023-06-22T11:27:49;9.27;;;5.43;;
15356;SDS011;7778;48.792;9.260;2023-06-22T11:30:36;8.38;;;4.55;;
15356;SDS011;7778;48.792;9.260;2023-06-22T11:33:21;8.98;;;4.43;;
15356;SDS011;7778;48.792;9.260;2023-06-22T11:36:07;8.10;;;4.40;;
15356;SDS011;7778;48.792;9.260;2023-06-22T11:38:53;11.07;;;5.63;;
15356;SDS011;7778;48.792;9.260;2023-06-22T11:41:41;9.00;;;4.68;;
15356;SDS011;7778;48.792;9.260;2023-06-22T11:44:26;8.20;;;4.25;;
15356;SDS011;7778;48.792;9.260;2023-06-22T11:47:13;11.10;;;4.53;;
15356;SDS011;7778;48.792;9.260;2023-06-22T11:49:59;12.13;;;5.32;;
15356;SDS011;7778;48.792;9.260;2023-06-22T11:52:45;8.13;;;4.43;;
15356;SDS011;7778;48.792;9.260;2023-06-22T11:55:31;7.93;;;4.40;;
15356;SDS011;7778;48.792;9.260;2023-06-22T11:58:16;6.85;;;4.40;;
15356;SDS011;7778;48.792;9.260;2023-06-22T12:01:02;7.70;;;4.10;;
15356;SDS011;7778;48.792;9.260;2023-06-22T12:03:51;10.55;;;4.30;;
15356;SDS011;7778;48.792;9.260;2023-06-22T12:06:37;11.80;;;5.15;;
15356;SDS011;7778;48.792;9.260;2023-06-22T12:09:25;7.65;;;4.57;;
15356;SDS011;7778;48.792;9.260;2023-06-22T12:12:11;9.90;;;4.57;;
15356;SDS011;7778;48.792;9.260;2023-06-22T12:14:57;11.05;;;4.70;;
15356;SDS011;7778;48.792;9.260;2023-06-22T12:17:46;11.70;;;5.95;;
15356;SDS011;7778;48.792;9.260;2023-06-22T12:20:34;9.50;;;4.78;;
15356;SDS011;7778;48.792;9.260;2023-06-22T12:23:19;9.35;;;4.30;;
15356;SDS011;7778;48.792;9.260;2023-06-22T12:26:05;8.68;;;5.25;;
15356;SDS011;7778;48.792;9.260;2023-06-22T12:28:51;6.85;;;4.57;;
15356;SDS011;7778;48.792;9.260;2023-06-22T12:31:36;8.13;;;4.80;;
15356;SDS011;7778;48.792;9.260;2023-06-22T12:34:23;7.32;;;5.03;;
15356;SDS011;7778;48.792;9.260;2023-06-22T12:37:10;9.80;;;5.28;;
15356;SDS011;7778;48.792;9.260;2023-06-22T12:39:56;8.00;;;4.20;;
15356;SDS011;7778;48.792;9.260;2023-06-22T12:42:42;8.48;;;5.18;;
15356;SDS011;7778;48.792;9.260;2023-06-22T12:45:29;10.93;;;6.22;;
15356;SDS011;7778;48.792;9.260;2023-06-22T12:48:17;8.98;;;5.22;;
15356;SDS011;7778;48.792;9.260;2023-06-22T12:51:02;13.45;;;5.63;;
15356;SDS011;7778;48.792;9.260;2023-06-22T12:53:49;9.73;;;4.80;;
15356;SDS011;7778;48.792;9.260;2023-06-22T12:56:35;10.07;;;4.50;;
15356;SDS011;7778;48.792;9.260;2023-06-22T12:59:22;8.07;;;4.80;;
15356;SDS011;7778;48.792;9.260;2023-06-22T13:02:07;11.48;;;4.57;;
15356;SDS011;7778;48.792;9.260;2023-06-22T13:04:53;8.90;;;4.97;;
15356;SDS011;7778;48.792;9.260;2023-06-22T13:07:39;12.07;;;4.60;;
15356;SDS011;7778;48.792;9.260;2023-06-22T13:10:27;12.85;;;5.07;;
15356;SDS011;7778;48.792;9.260;2023-06-22T13:13:12;9.63;;;4.65;;
15356;SDS011;7778;48.792;9.260;2023-06-22T13:15:58;11.07;;;4.82;;
15356;SDS011;7778;48.792;9.260;2023-06-22T13:18:44;9.38;;;4.63;;
15356;SDS011;7778;48.792;9.260;2023-06-22T13:21:30;8.32;;;4.50;;
15356;SDS011;7778;48.792;9.260;2023-06-22T13:24:17;8.23;;;4.32;;
15356;SDS011;7778;48.792;9.260;2023-06-22T13:27:05;7.43;;;4.30;;
15356;SDS011;7778;48.792;9.260;2023-06-22T13:29:51;10.98;;;5.28;;
15356;SDS011;7778;48.792;9.260;2023-06-22T13:32:36;13.70;;;4.72;;
15356;SDS011;7778;48.792;9.260;2023-06-22T13:35:25;6.90;;;4.32;;
15356;SDS011;7778;48.792;9.260;2023-06-22T13:38:10;11.25;;;4.45;;
15356;SDS011;7778;48.792;9.260;2023-06-22T13:40:56;11.93;;;4.95;;
15356;SDS011;7778;48.792;9.260;2023-06-22T13:43:44;7.05;;;4.78;;
15356;SDS011;7778;48.792;9.260;2023-06-22T13:46:30;10.20;;;4.57;;
15356;SDS011;7778;48.792;9.260;2023-06-22T13:49:15;9.60;;;5.15;;
15356;SDS011;7778;48.792;9.260;2023-06-22T13:52:01;11.70;;;4.50;;
15356;SDS011;7778;48.792;9.260;2023-06-22T13:54:47;10.82;;;4.70;;
15356;SDS011;7778;48.792;9.260;2023-06-22T13:57:33;8.90;;;4.28;;
15356;SDS011;7778;48.792;9.260;2023-06-22T14:00:20;14.73;;;4.70;;
15356;SDS011;7778;48.792;9.260;2023-06-22T14:03:06;9.50;;;4.72;;
15356;SDS011;7778;48.792;9.260;2023-06-22T14:05:51;7.60;;;4.18;;
15356;SDS011;7778;48.792;9.260;2023-06-22T14:08:40;7.70;;;4.82;;
15356;SDS011;7778;48.792;9.260;2023-06-22T14:11:25;7.75;;;4.10;;
15356;SDS011;7778;48.792;9.260;2023-06-22T14:14:11;10.93;;;4.43;;
15356;SDS011;7778;48.792;9.260;2023-06-22T14:16:58;11.30;;;3.92;;
15356;SDS011;7778;48.792;9.260;2023-06-22T14:22:27;9.23;;;4.55;;
15356;SDS011;7778;48.792;9.260;2023-06-22T14:38:44;7.22;;;4.07;;
15356;SDS011;7778;48.792;9.260;2023-06-22T14:41:31;9.98;;;4.40;;
15356;SDS011;7778;48.792;9.260;2023-06-22T14:44:19;10.75;;;4.03;;
15356;SDS011;7778;48.792;9.260;2023-06-22T14:47:23;10.63;;;3.35;;
15356;SDS011;7778;48.792;9.260;2023-06-22T14:50:45;10.70;;;3.55;;
15356;SDS011;7778;48.792;9.260;2023-06-22T14:53:31;9.65;;;3.47;;
15356;SDS011;7778;48.792;9.260;2023-06-22T14:56:23;13.48;;;3.58;;
15356;SDS011;7778;48.792;9.260;2023-06-22T14:59:09;5.32;;;3.40;;
15356;SDS011;7778;48.792;9.260;2023-06-22T15:01:55;8.55;;;3.08;;
15356;SDS011;7778;48.792;9.260;2023-06-22T15:04:41;9.43;;;3.20;;
15356;SDS011;7778;48.792;9.260;2023-06-22T15:07:26;8.70;;;3.42;;
15356;SDS011;7778;48.792;9.260;2023-06-22T15:10:12;9.20;;;3.47;;
15356;SDS011;7778;48.792;9.260;2023-06-22T15:16:59;5.57;;;2.70;;
15356;SDS011;7778;48.792;9.260;2023-06-22T15:19:45;12.05;;;3.42;;
15356;SDS011;7778;48.792;9.260;2023-06-22T15:29:17;6.53;;;2.42;;
15356;SDS011;7778;48.792;9.260;2023-06-22T15:32:05;9.98;;;3.00;;
15356;SDS011;7778;48.792;9.260;2023-06-22T15:34:51;7.88;;;2.90;;
15356;SDS011;7778;48.792;9.260;2023-06-22T15:37:37;10.43;;;3.15;;
15356;SDS011;7778;48.792;9.260;2023-06-22T15:40:23;10.50;;;2.92;;
15356;SDS011;7778;48.792;9.260;2023-06-22T15:43:09;12.10;;;2.90;;
15356;SDS011;7778;48.792;9.260;2023-06-22T15:45:56;6.55;;;2.90;;
15356;SDS011;7778;48.792;9.260;2023-06-22T15:48:43;9.60;;;2.97;;
15356;SDS011;7778;48.792;9.260;2023-06-22T15:51:28;7.25;;;3.00;;
15356;SDS011;7778;48.792;9.260;2023-06-22T15:54:14;10.07;;;3.58;;
15356;SDS011;7778;48.792;9.260;2023-06-22T15:57:00;9.05;;;2.80;;
15356;SDS011;7778;48.792;9.260;2023-06-22T15:59:45;8.25;;;2.38;;
15356;SDS011;7778;48.792;9.260;2023-06-22T16:02:30;7.90;;;2.83;;
15356;SDS011;7778;48.792;9.260;2023-06-22T16:05:17;9.93;;;3.60;;
15356;SDS011;7778;48.792;9.260;2023-06-22T16:08:03;9.65;;;3.67;;
15356;SDS011;7778;48.792;9.260;2023-06-22T16:10:55;9.05;;;3.35;;
15356;SDS011;7778;48.792;9.260;2023-06-22T16:13:40;11.50;;;3.08;;
15356;SDS011;7778;48.792;9.260;2023-06-22T16:16:26;11.90;;;3.33;;
15356;SDS011;7778;48.792;9.260;2023-06-22T16:19:11;8.10;;;2.40;;
15356;SDS011;7778;48.792;9.260;2023-06-22T16:21:58;8.25;;;3.42;;
15356;SDS011;7778;48.792;9.260;2023-06-22T16:24:44;7.15;;;2.85;;
15356;SDS011;7778;48.792;9.260;2023-06-22T16:27:30;8.40;;;3.78;;
15356;SDS011;7778;48.792;9.260;2023-06-22T16:30:17;9.68;;;3.13;;
15356;SDS011;7778;48.792;9.260;2023-06-22T16:33:03;12.90;;;3.33;;
15356;SDS011;7778;48.792;9.260;2023-06-22T16:35:48;7.38;;;3.20;;
15356;SDS011;7778;48.792;9.260;2023-06-22T16:38:35;5.50;;;2.97;;
15356;SDS011;7778;48.792;9.260;2023-06-22T16:41:21;5.47;;;2.67;;
15356;SDS011;7778;48.792;9.260;2023-06-22T16:44:09;12.50;;;3.15;;
15356;SDS011;7778;48.792;9.260;2023-06-22T16:46:55;10.43;;;2.95;;
15356;SDS011;7778;48.792;9.260;2023-06-22T16:49:40;7.93;;;2.70;;
15356;SDS011;7778;48.792;9.260;2023-06-22T16:52:26;6.05;;;2.67;;
15356;SDS011;7778;48.792;9.260;2023-06-22T16:55:13;5.82;;;3.08;;
15356;SDS011;7778;48.792;9.260;2023-06-22T16:57:59;8.95;;;3.35;;
15356;SDS011;7778;48.792;9.260;2023-06-22T17:00:46;6.32;;;2.63;;
15356;SDS011;7778;48.792;9.260;2023-06-22T17:03:33;9.32;;;2.67;;
15356;SDS011;7778;48.792;9.260;2023-06-22T17:06:21;9.27;;;2.80;;
15356;SDS011;7778;48.792;9.260;2023-06-22T17:09:07;7.95;;;2.75;;
15356;SDS011;7778;48.792;9.260;2023-06-22T17:12:00;7.22;;;2.38;;
15356;SDS011;7778;48.792;9.260;2023-06-22T17:14:45;4.82;;;2.33;;
15356;SDS011;7778;48.792;9.260;2023-06-22T17:17:31;10.35;;;3.45;;
15356;SDS011;7778;48.792;9.260;2023-06-22T17:20:18;6.68;;;2.97;;